Terminal Aerodrome Forecast
Issued by NWS

Home | Current Version | Previous Version | Text Only | Print | Product List | Glossary On
Versions: 1 2 3 4 5 6 7 8 9 10 11 12 13 14 15 16 17 18 19 20 21 22 23 24 25 26
875
FTUS43 KILX 010520
TAFCMI
TAF
KCMI 010520Z 0106/0206 VRB04KT 1/4SM FG OVC002
     FM011200 33005KT 1/2SM FG OVC002
     FM011700 35005KT P6SM VCSH BKN015
     FM012100 30009KT P6SM VCTS BKN040CB
     FM012200 31010KT P6SM VCSH BKN015=

USA.gov is the U.S. government's official web portal to all federal, state and local government web resources and services.